sensor_id;sensor_type;location;lat;lon;timestamp;temperature;humidity
7204;DHT22;3643;52.460;13.322;2023-11-21T00:00:05;8.30;99.90
7204;DHT22;3643;52.460;13.322;2023-11-21T00:02:38;8.40;99.90
7204;DHT22;3643;52.460;13.322;2023-11-21T00:05:08;8.40;99.90
7204;DHT22;3643;52.460;13.322;2023-11-21T00:07:36;8.30;99.90
7204;DHT22;3643;52.460;13.322;2023-11-21T00:10:05;8.20;99.90
7204;DHT22;3643;52.460;13.322;2023-11-21T00:12:34;8.00;99.90
7204;DHT22;3643;52.460;13.322;2023-11-21T00:15:03;7.90;99.90
7204;DHT22;3643;52.460;13.322;2023-11-21T00:17:32;7.80;99.90
7204;DHT22;3643;52.460;13.322;2023-11-21T00:20:01;7.70;99.90
7204;DHT22;3643;52.460;13.322;2023-11-21T00:22:33;7.60;99.90
7204;DHT22;3643;52.460;13.322;2023-11-21T00:25:01;7.60;99.90
7204;DHT22;3643;52.460;13.322;2023-11-21T00:27:31;7.50;99.90
7204;DHT22;3643;52.460;13.322;2023-11-21T00:30:00;7.40;99.90
7204;DHT22;3643;52.460;13.322;2023-11-21T00:32:28;7.30;99.90
7204;DHT22;3643;52.460;13.322;2023-11-21T00:34:56;7.30;99.90
7204;DHT22;3643;52.460;13.322;2023-11-21T00:37:24;7.10;99.90
7204;DHT22;3643;52.460;13.322;2023-11-21T00:39:52;7.00;99.90
7204;DHT22;3643;52.460;13.322;2023-11-21T00:42:20;7.00;99.90
7204;DHT22;3643;52.460;13.322;2023-11-21T00:44:49;7.00;99.90
7204;DHT22;3643;52.460;13.322;2023-11-21T00:47:19;6.90;99.90
7204;DHT22;3643;52.460;13.322;2023-11-21T00:49:47;6.90;99.90
7204;DHT22;3643;52.460;13.322;2023-11-21T00:52:15;7.00;99.90
7204;DHT22;3643;52.460;13.322;2023-11-21T00:54:44;6.90;99.90
7204;DHT22;3643;52.460;13.322;2023-11-21T00:57:12;6.90;99.90
7204;DHT22;3643;52.460;13.322;2023-11-21T00:59:40;6.80;99.90
7204;DHT22;3643;52.460;13.322;2023-11-21T01:02:09;6.90;99.90
7204;DHT22;3643;52.460;13.322;2023-11-21T01:04:39;6.70;99.90
7204;DHT22;3643;52.460;13.322;2023-11-21T01:07:07;6.70;99.90
7204;DHT22;3643;52.460;13.322;2023-11-21T01:09:36;6.60;99.90
7204;DHT22;3643;52.460;13.322;2023-11-21T01:12:04;6.60;99.90
7204;DHT22;3643;52.460;13.322;2023-11-21T01:14:33;6.60;99.90
7204;DHT22;3643;52.460;13.322;2023-11-21T01:17:02;6.50;99.90
7204;DHT22;3643;52.460;13.322;2023-11-21T01:19:31;6.50;99.90
7204;DHT22;3643;52.460;13.322;2023-11-21T01:22:00;6.60;99.90
7204;DHT22;3643;52.460;13.322;2023-11-21T01:24:29;6.40;99.90
7204;DHT22;3643;52.460;13.322;2023-11-21T01:26:57;6.30;99.90
7204;DHT22;3643;52.460;13.322;2023-11-21T01:29:25;6.30;99.90
7204;DHT22;3643;52.460;13.322;2023-11-21T01:31:53;6.20;99.90
7204;DHT22;3643;52.460;13.322;2023-11-21T01:34:21;6.20;99.90
7204;DHT22;3643;52.460;13.322;2023-11-21T01:36:49;6.20;99.90
7204;DHT22;3643;52.460;13.322;2023-11-21T01:39:18;6.20;99.90
7204;DHT22;3643;52.460;13.322;2023-11-21T01:41:50;6.10;99.90
7204;DHT22;3643;52.460;13.322;2023-11-21T01:44:19;6.00;99.90
7204;DHT22;3643;52.460;13.322;2023-11-21T01:46:47;6.00;99.90
7204;DHT22;3643;52.460;13.322;2023-11-21T01:49:16;6.00;99.90
7204;DHT22;3643;52.460;13.322;2023-11-21T01:51:47;6.20;99.90
7204;DHT22;3643;52.460;13.322;2023-11-21T01:54:18;6.00;99.90
7204;DHT22;3643;52.460;13.322;2023-11-21T01:56:47;6.00;99.90
7204;DHT22;3643;52.460;13.322;2023-11-21T01:59:18;6.00;99.90
7204;DHT22;3643;52.460;13.322;2023-11-21T02:01:47;6.00;99.90
7204;DHT22;3643;52.460;13.322;2023-11-21T02:04:18;5.90;99.90
7204;DHT22;3643;52.460;13.322;2023-11-21T02:06:48;5.90;99.90
7204;DHT22;3643;52.460;13.322;2023-11-21T02:09:24;5.90;99.90
7204;DHT22;3643;52.460;13.322;2023-11-21T02:11:54;5.90;99.90
7204;DHT22;3643;52.460;13.322;2023-11-21T02:14:25;5.90;99.90
7204;DHT22;3643;52.460;13.322;2023-11-21T02:16:55;5.90;99.90
7204;DHT22;3643;52.460;13.322;2023-11-21T02:19:24;5.90;99.90
7204;DHT22;3643;52.460;13.322;2023-11-21T02:21:53;6.00;99.90
7204;DHT22;3643;52.460;13.322;2023-11-21T02:24:23;5.80;99.90
7204;DHT22;3643;52.460;13.322;2023-11-21T02:26:51;5.80;99.90
7204;DHT22;3643;52.460;13.322;2023-11-21T02:29:19;5.70;99.90
7204;DHT22;3643;52.460;13.322;2023-11-21T02:31:53;5.70;99.90
7204;DHT22;3643;52.460;13.322;2023-11-21T02:34:22;5.70;99.90
7204;DHT22;3643;52.460;13.322;2023-11-21T02:36:52;5.70;99.90
7204;DHT22;3643;52.460;13.322;2023-11-21T02:39:21;5.70;99.90
7204;DHT22;3643;52.460;13.322;2023-11-21T02:41:51;5.70;99.90
7204;DHT22;3643;52.460;13.322;2023-11-21T02:44:20;5.60;99.90
7204;DHT22;3643;52.460;13.322;2023-11-21T02:46:48;5.60;99.90
7204;DHT22;3643;52.460;13.322;2023-11-21T02:49:16;5.50;99.90
7204;DHT22;3643;52.460;13.322;2023-11-21T02:51:45;5.60;99.90
7204;DHT22;3643;52.460;13.322;2023-11-21T02:54:13;5.60;99.90
7204;DHT22;3643;52.460;13.322;2023-11-21T02:56:43;5.60;99.90
7204;DHT22;3643;52.460;13.322;2023-11-21T02:59:14;5.30;99.90
7204;DHT22;3643;52.460;13.322;2023-11-21T03:01:42;5.50;99.90
7204;DHT22;3643;52.460;13.322;2023-11-21T03:04:10;5.50;99.90
7204;DHT22;3643;52.460;13.322;2023-11-21T03:06:45;5.50;99.90
7204;DHT22;3643;52.460;13.322;2023-11-21T03:09:13;5.50;99.90
7204;DHT22;3643;52.460;13.322;2023-11-21T03:11:43;5.50;99.90
7204;DHT22;3643;52.460;13.322;2023-11-21T03:14:11;5.50;99.90
7204;DHT22;3643;52.460;13.322;2023-11-21T03:16:41;5.40;99.90
7204;DHT22;3643;52.460;13.322;2023-11-21T03:19:09;5.40;99.90
7204;DHT22;3643;52.460;13.322;2023-11-21T03:21:37;5.40;99.90
7204;DHT22;3643;52.460;13.322;2023-11-21T03:24:06;5.40;99.90
7204;DHT22;3643;52.460;13.322;2023-11-21T03:26:34;5.40;99.90
7204;DHT22;3643;52.460;13.322;2023-11-21T03:29:05;5.40;99.90
7204;DHT22;3643;52.460;13.322;2023-11-21T03:31:33;5.40;99.90
7204;DHT22;3643;52.460;13.322;2023-11-21T03:34:02;5.30;99.90
7204;DHT22;3643;52.460;13.322;2023-11-21T03:36:31;5.30;99.90
7204;DHT22;3643;52.460;13.322;2023-11-21T03:38:59;5.30;99.90
7204;DHT22;3643;52.460;13.322;2023-11-21T03:41:27;5.30;99.90
7204;DHT22;3643;52.460;13.322;2023-11-21T03:43:55;5.30;99.90
7204;DHT22;3643;52.460;13.322;2023-11-21T03:46:23;5.30;99.90
7204;DHT22;3643;52.460;13.322;2023-11-21T03:48:52;5.30;99.90
7204;DHT22;3643;52.460;13.322;2023-11-21T03:51:23;5.20;99.90
7204;DHT22;3643;52.460;13.322;2023-11-21T03:53:52;5.30;99.90
7204;DHT22;3643;52.460;13.322;2023-11-21T03:56:20;5.30;99.90
7204;DHT22;3643;52.460;13.322;2023-11-21T03:58:49;5.30;99.90
7204;DHT22;3643;52.460;13.322;2023-11-21T04:01:21;5.30;99.90
7204;DHT22;3643;52.460;13.322;2023-11-21T04:03:50;5.20;99.90
7204;DHT22;3643;52.460;13.322;2023-11-21T04:06:18;5.20;99.90
7204;DHT22;3643;52.460;13.322;2023-11-21T04:08:48;5.20;99.90
7204;DHT22;3643;52.460;13.322;2023-11-21T04:11:16;5.20;99.90
7204;DHT22;3643;52.460;13.322;2023-11-21T04:13:44;5.40;99.90
7204;DHT22;3643;52.460;13.322;2023-11-21T04:16:14;5.20;99.90
7204;DHT22;3643;52.460;13.322;2023-11-21T04:18:42;5.50;99.90
7204;DHT22;3643;52.460;13.322;2023-11-21T04:21:10;5.10;99.90
7204;DHT22;3643;52.460;13.322;2023-11-21T04:23:38;5.10;99.90
7204;DHT22;3643;52.460;13.322;2023-11-21T04:26:09;5.10;99.90
7204;DHT22;3643;52.460;13.322;2023-11-21T04:28:37;5.00;99.90
7204;DHT22;3643;52.460;13.322;2023-11-21T04:31:05;5.00;99.90
7204;DHT22;3643;52.460;13.322;2023-11-21T04:33:34;5.00;99.90
7204;DHT22;3643;52.460;13.322;2023-11-21T04:36:02;5.00;99.90
7204;DHT22;3643;52.460;13.322;2023-11-21T04:38:30;4.90;99.90
7204;DHT22;3643;52.460;13.322;2023-11-21T04:41:00;5.00;99.90
7204;DHT22;3643;52.460;13.322;2023-11-21T04:43:31;5.00;99.90
7204;DHT22;3643;52.460;13.322;2023-11-21T04:45:59;5.00;99.90
7204;DHT22;3643;52.460;13.322;2023-11-21T04:48:29;5.00;99.90
7204;DHT22;3643;52.460;13.322;2023-11-21T04:50:57;4.90;99.90
7204;DHT22;3643;52.460;13.322;2023-11-21T04:53:26;4.90;99.90
7204;DHT22;3643;52.460;13.322;2023-11-21T04:55:54;4.90;99.90
7204;DHT22;3643;52.460;13.322;2023-11-21T04:58:23;5.00;99.90
7204;DHT22;3643;52.460;13.322;2023-11-21T05:00:52;5.00;99.90
7204;DHT22;3643;52.460;13.322;2023-11-21T05:03:21;5.20;99.90
7204;DHT22;3643;52.460;13.322;2023-11-21T05:05:50;5.00;99.90
7204;DHT22;3643;52.460;13.322;2023-11-21T05:08:19;5.00;99.90
7204;DHT22;3643;52.460;13.322;2023-11-21T05:10:48;5.00;99.90
7204;DHT22;3643;52.460;13.322;2023-11-21T05:13:18;5.00;99.90
7204;DHT22;3643;52.460;13.322;2023-11-21T05:15:47;5.00;99.90
7204;DHT22;3643;52.460;13.322;2023-11-21T05:18:16;5.00;99.90
7204;DHT22;3643;52.460;13.322;2023-11-21T05:20:45;5.00;99.90
7204;DHT22;3643;52.460;13.322;2023-11-21T05:23:14;5.00;99.90
7204;DHT22;3643;52.460;13.322;2023-11-21T05:25:42;5.00;99.90
7204;DHT22;3643;52.460;13.322;2023-11-21T05:28:10;5.10;99.90
7204;DHT22;3643;52.460;13.322;2023-11-21T05:30:38;5.10;99.90
7204;DHT22;3643;52.460;13.322;2023-11-21T05:33:06;5.00;99.90
7204;DHT22;3643;52.460;13.322;2023-11-21T05:35:35;5.00;99.90
7204;DHT22;3643;52.460;13.322;2023-11-21T05:38:03;5.00;99.90
7204;DHT22;3643;52.460;13.322;2023-11-21T05:40:31;5.00;99.90
7204;DHT22;3643;52.460;13.322;2023-11-21T05:43:00;5.00;99.90
7204;DHT22;3643;52.460;13.322;2023-11-21T05:45:28;4.90;99.90
7204;DHT22;3643;52.460;13.322;2023-11-21T05:47:58;4.90;99.90
7204;DHT22;3643;52.460;13.322;2023-11-21T05:50:26;4.80;99.90
7204;DHT22;3643;52.460;13.322;2023-11-21T05:52:56;4.60;99.90
7204;DHT22;3643;52.460;13.322;2023-11-21T05:55:26;4.70;99.90
7204;DHT22;3643;52.460;13.322;2023-11-21T05:57:54;4.70;99.90
7204;DHT22;3643;52.460;13.322;2023-11-21T06:00:22;4.70;99.90
7204;DHT22;3643;52.460;13.322;2023-11-21T06:02:53;4.70;99.90
7204;DHT22;3643;52.460;13.322;2023-11-21T06:05:24;4.70;99.90
7204;DHT22;3643;52.460;13.322;2023-11-21T06:07:53;4.70;99.90
7204;DHT22;3643;52.460;13.322;2023-11-21T06:10:24;4.60;99.90
7204;DHT22;3643;52.460;13.322;2023-11-21T06:12:53;4.70;99.90
7204;DHT22;3643;52.460;13.322;2023-11-21T06:15:21;4.60;99.90
7204;DHT22;3643;52.460;13.322;2023-11-21T06:17:51;4.50;99.90
7204;DHT22;3643;52.460;13.322;2023-11-21T06:20:21;4.60;99.90
7204;DHT22;3643;52.460;13.322;2023-11-21T06:22:50;4.60;99.90
7204;DHT22;3643;52.460;13.322;2023-11-21T06:25:19;4.60;99.90
7204;DHT22;3643;52.460;13.322;2023-11-21T06:27:48;4.60;99.90
7204;DHT22;3643;52.460;13.322;2023-11-21T06:30:17;4.50;99.90
7204;DHT22;3643;52.460;13.322;2023-11-21T06:32:46;4.50;99.90
7204;DHT22;3643;52.460;13.322;2023-11-21T06:35:15;4.50;99.90
7204;DHT22;3643;52.460;13.322;2023-11-21T06:37:44;4.60;99.90
7204;DHT22;3643;52.460;13.322;2023-11-21T06:40:15;4.50;99.90
7204;DHT22;3643;52.460;13.322;2023-11-21T06:42:43;4.60;99.90
7204;DHT22;3643;52.460;13.322;2023-11-21T06:45:12;4.50;99.90
7204;DHT22;3643;52.460;13.322;2023-11-21T06:47:41;4.50;99.90
7204;DHT22;3643;52.460;13.322;2023-11-21T06:50:10;4.50;99.90
7204;DHT22;3643;52.460;13.322;2023-11-21T06:52:38;4.50;99.90
7204;DHT22;3643;52.460;13.322;2023-11-21T06:55:07;4.40;99.90
7204;DHT22;3643;52.460;13.322;2023-11-21T06:57:36;4.30;99.90
7204;DHT22;3643;52.460;13.322;2023-11-21T07:00:06;4.40;99.90
7204;DHT22;3643;52.460;13.322;2023-11-21T07:02:37;4.40;99.90
7204;DHT22;3643;52.460;13.322;2023-11-21T07:05:06;4.40;99.90
7204;DHT22;3643;52.460;13.322;2023-11-21T07:07:35;4.50;99.90
7204;DHT22;3643;52.460;13.322;2023-11-21T07:10:05;4.30;99.90
7204;DHT22;3643;52.460;13.322;2023-11-21T07:12:33;4.50;99.90
7204;DHT22;3643;52.460;13.322;2023-11-21T07:15:02;4.50;99.90
7204;DHT22;3643;52.460;13.322;2023-11-21T07:17:32;4.50;99.90
7204;DHT22;3643;52.460;13.322;2023-11-21T07:20:03;4.50;99.90
7204;DHT22;3643;52.460;13.322;2023-11-21T07:22:33;4.40;99.90
7204;DHT22;3643;52.460;13.322;2023-11-21T07:25:01;4.50;99.90
7204;DHT22;3643;52.460;13.322;2023-11-21T07:27:29;4.50;99.90
7204;DHT22;3643;52.460;13.322;2023-11-21T07:29:57;4.40;99.90
7204;DHT22;3643;52.460;13.322;2023-11-21T07:32:25;4.40;99.90
7204;DHT22;3643;52.460;13.322;2023-11-21T07:34:53;4.40;99.90
7204;DHT22;3643;52.460;13.322;2023-11-21T07:37:25;4.50;99.90
7204;DHT22;3643;52.460;13.322;2023-11-21T07:39:55;4.40;99.90
7204;DHT22;3643;52.460;13.322;2023-11-21T07:42:24;4.40;99.90
7204;DHT22;3643;52.460;13.322;2023-11-21T07:44:53;4.50;99.90
7204;DHT22;3643;52.460;13.322;2023-11-21T07:47:21;4.50;99.90
7204;DHT22;3643;52.460;13.322;2023-11-21T07:49:49;4.40;99.90
7204;DHT22;3643;52.460;13.322;2023-11-21T07:52:17;4.40;99.90
7204;DHT22;3643;52.460;13.322;2023-11-21T07:54:46;4.50;99.90
7204;DHT22;3643;52.460;13.322;2023-11-21T07:57:14;4.50;99.90
7204;DHT22;3643;52.460;13.322;2023-11-21T07:59:42;4.50;99.90
7204;DHT22;3643;52.460;13.322;2023-11-21T08:02:10;4.60;99.90
7204;DHT22;3643;52.460;13.322;2023-11-21T08:04:38;4.40;99.90
7204;DHT22;3643;52.460;13.322;2023-11-21T08:07:06;4.50;99.90
7204;DHT22;3643;52.460;13.322;2023-11-21T08:09:34;4.50;99.90
7204;DHT22;3643;52.460;13.322;2023-11-21T08:12:04;4.40;99.90
7204;DHT22;3643;52.460;13.322;2023-11-21T08:14:34;4.50;99.90
7204;DHT22;3643;52.460;13.322;2023-11-21T08:17:05;4.20;99.90
7204;DHT22;3643;52.460;13.322;2023-11-21T08:19:34;4.60;99.90
7204;DHT22;3643;52.460;13.322;2023-11-21T08:22:03;4.60;99.90
7204;DHT22;3643;52.460;13.322;2023-11-21T08:24:32;4.50;99.90
7204;DHT22;3643;52.460;13.322;2023-11-21T08:27:00;4.50;99.90
7204;DHT22;3643;52.460;13.322;2023-11-21T08:29:29;4.50;99.90
7204;DHT22;3643;52.460;13.322;2023-11-21T08:31:58;4.60;99.90
7204;DHT22;3643;52.460;13.322;2023-11-21T08:34:26;4.60;99.90
7204;DHT22;3643;52.460;13.322;2023-11-21T08:36:55;4.50;99.90
7204;DHT22;3643;52.460;13.322;2023-11-21T08:39:24;4.60;99.90
7204;DHT22;3643;52.460;13.322;2023-11-21T08:41:53;4.50;99.90
7204;DHT22;3643;52.460;13.322;2023-11-21T08:44:21;4.50;99.90
7204;DHT22;3643;52.460;13.322;2023-11-21T08:46:51;4.60;99.90
7204;DHT22;3643;52.460;13.322;2023-11-21T08:49:19;4.60;99.90
7204;DHT22;3643;52.460;13.322;2023-11-21T08:51:47;4.60;99.90
7204;DHT22;3643;52.460;13.322;2023-11-21T08:54:15;4.60;99.90
7204;DHT22;3643;52.460;13.322;2023-11-21T08:56:43;4.90;99.90
7204;DHT22;3643;52.460;13.322;2023-11-21T08:59:11;4.70;99.90
7204;DHT22;3643;52.460;13.322;2023-11-21T09:01:41;4.60;99.90
7204;DHT22;3643;52.460;13.322;2023-11-21T09:04:11;4.60;99.90
7204;DHT22;3643;52.460;13.322;2023-11-21T09:06:39;4.60;99.90
7204;DHT22;3643;52.460;13.322;2023-11-21T09:09:07;4.60;99.90
7204;DHT22;3643;52.460;13.322;2023-11-21T09:11:36;4.60;99.90
7204;DHT22;3643;52.460;13.322;2023-11-21T09:14:04;4.60;99.90
7204;DHT22;3643;52.460;13.322;2023-11-21T09:16:33;4.70;99.90
7204;DHT22;3643;52.460;13.322;2023-11-21T09:19:01;4.60;99.90
7204;DHT22;3643;52.460;13.322;2023-11-21T09:21:33;4.70;99.90
7204;DHT22;3643;52.460;13.322;2023-11-21T09:24:01;4.90;99.90
7204;DHT22;3643;52.460;13.322;2023-11-21T09:26:29;4.70;99.90
7204;DHT22;3643;52.460;13.322;2023-11-21T09:28:57;4.60;99.90
7204;DHT22;3643;52.460;13.322;2023-11-21T09:31:25;4.50;99.90
7204;DHT22;3643;52.460;13.322;2023-11-21T09:33:54;4.60;99.90
7204;DHT22;3643;52.460;13.322;2023-11-21T09:36:24;4.60;99.90
7204;DHT22;3643;52.460;13.322;2023-11-21T09:38:55;4.60;99.90
7204;DHT22;3643;52.460;13.322;2023-11-21T09:41:31;4.60;99.90
7204;DHT22;3643;52.460;13.322;2023-11-21T09:44:03;4.70;99.90
7204;DHT22;3643;52.460;13.322;2023-11-21T09:46:34;4.70;99.90
7204;DHT22;3643;52.460;13.322;2023-11-21T09:49:09;4.80;99.90
7204;DHT22;3643;52.460;13.322;2023-11-21T09:51:39;4.80;99.90
7204;DHT22;3643;52.460;13.322;2023-11-21T09:54:11;4.70;99.90
7204;DHT22;3643;52.460;13.322;2023-11-21T09:56:40;4.70;99.90
7204;DHT22;3643;52.460;13.322;2023-11-21T09:59:13;4.70;99.90
7204;DHT22;3643;52.460;13.322;2023-11-21T10:01:42;4.80;99.90
7204;DHT22;3643;52.460;13.322;2023-11-21T10:04:10;4.70;99.90
7204;DHT22;3643;52.460;13.322;2023-11-21T10:06:39;4.60;99.90
7204;DHT22;3643;52.460;13.322;2023-11-21T10:09:11;4.70;99.90
7204;DHT22;3643;52.460;13.322;2023-11-21T10:11:40;4.70;99.90
7204;DHT22;3643;52.460;13.322;2023-11-21T10:14:10;4.70;99.90
7204;DHT22;3643;52.460;13.322;2023-11-21T10:16:41;4.60;99.90
7204;DHT22;3643;52.460;13.322;2023-11-21T10:19:11;4.60;99.90
7204;DHT22;3643;52.460;13.322;2023-11-21T10:21:40;4.60;99.90
7204;DHT22;3643;52.460;13.322;2023-11-21T10:24:08;4.60;99.90
7204;DHT22;3643;52.460;13.322;2023-11-21T10:26:38;4.70;99.90
7204;DHT22;3643;52.460;13.322;2023-11-21T10:29:19;4.70;99.90
7204;DHT22;3643;52.460;13.322;2023-11-21T10:31:49;4.70;99.90
7204;DHT22;3643;52.460;13.322;2023-11-21T10:34:20;4.80;99.90
7204;DHT22;3643;52.460;13.322;2023-11-21T10:36:48;4.70;99.90
7204;DHT22;3643;52.460;13.322;2023-11-21T10:39:17;4.70;99.90
7204;DHT22;3643;52.460;13.322;2023-11-21T10:41:48;4.60;99.90
7204;DHT22;3643;52.460;13.322;2023-11-21T10:44:16;4.80;99.90
7204;DHT22;3643;52.460;13.322;2023-11-21T10:46:49;4.50;99.90
7204;DHT22;3643;52.460;13.322;2023-11-21T10:49:18;4.50;99.90
7204;DHT22;3643;52.460;13.322;2023-11-21T10:51:47;4.40;99.90
7204;DHT22;3643;52.460;13.322;2023-11-21T10:54:19;4.40;99.90
7204;DHT22;3643;52.460;13.322;2023-11-21T10:56:53;4.40;99.90
7204;DHT22;3643;52.460;13.322;2023-11-21T10:59:23;4.40;99.90
7204;DHT22;3643;52.460;13.322;2023-11-21T11:01:52;4.40;99.90
7204;DHT22;3643;52.460;13.322;2023-11-21T11:04:21;4.40;99.90
7204;DHT22;3643;52.460;13.322;2023-11-21T11:06:54;4.30;99.90
7204;DHT22;3643;52.460;13.322;2023-11-21T11:09:23;4.30;99.90
7204;DHT22;3643;52.460;13.322;2023-11-21T11:11:52;4.30;99.90
7204;DHT22;3643;52.460;13.322;2023-11-21T11:14:20;4.30;99.90
7204;DHT22;3643;52.460;13.322;2023-11-21T11:16:54;4.30;99.90
7204;DHT22;3643;52.460;13.322;2023-11-21T11:19:22;4.30;99.90
7204;DHT22;3643;52.460;13.322;2023-11-21T11:22:00;4.20;99.90
7204;DHT22;3643;52.460;13.322;2023-11-21T11:24:49;4.10;99.90
7204;DHT22;3643;52.460;13.322;2023-11-21T11:27:30;4.10;99.90
7204;DHT22;3643;52.460;13.322;2023-11-21T11:30:11;4.10;99.90
7204;DHT22;3643;52.460;13.322;2023-11-21T11:32:52;4.00;99.90
7204;DHT22;3643;52.460;13.322;2023-11-21T11:35:29;4.00;99.90
7204;DHT22;3643;52.460;13.322;2023-11-21T11:37:58;3.90;99.90
7204;DHT22;3643;52.460;13.322;2023-11-21T11:40:39;3.90;99.90
7204;DHT22;3643;52.460;13.322;2023-11-21T11:43:08;3.90;99.90
7204;DHT22;3643;52.460;13.322;2023-11-21T11:45:37;4.00;99.90
7204;DHT22;3643;52.460;13.322;2023-11-21T11:48:11;3.90;99.90
7204;DHT22;3643;52.460;13.322;2023-11-21T11:53:25;3.80;99.90
7204;DHT22;3643;52.460;13.322;2023-11-21T11:56:07;3.80;99.90
7204;DHT22;3643;52.460;13.322;2023-11-21T11:58:49;3.90;99.90
7204;DHT22;3643;52.460;13.322;2023-11-21T12:01:19;3.80;99.90
7204;DHT22;3643;52.460;13.322;2023-11-21T12:06:52;3.20;99.90
7204;DHT22;3643;52.460;13.322;2023-11-21T12:09:21;3.80;99.90
7204;DHT22;3643;52.460;13.322;2023-11-21T12:11:50;3.90;99.90
7204;DHT22;3643;52.460;13.322;2023-11-21T12:14:19;3.90;99.90
7204;DHT22;3643;52.460;13.322;2023-11-21T12:16:47;3.80;99.90
7204;DHT22;3643;52.460;13.322;2023-11-21T12:19:16;3.90;99.90
7204;DHT22;3643;52.460;13.322;2023-11-21T12:21:43;3.90;99.90
7204;DHT22;3643;52.460;13.322;2023-11-21T12:24:12;4.00;99.90
7204;DHT22;3643;52.460;13.322;2023-11-21T12:26:41;5.60;99.90
7204;DHT22;3643;52.460;13.322;2023-11-21T12:29:09;4.00;99.90
7204;DHT22;3643;52.460;13.322;2023-11-21T12:31:39;3.90;99.90
7204;DHT22;3643;52.460;13.322;2023-11-21T12:34:07;3.90;99.90
7204;DHT22;3643;52.460;13.322;2023-11-21T12:36:38;3.90;99.90
7204;DHT22;3643;52.460;13.322;2023-11-21T12:39:06;3.90;99.90
7204;DHT22;3643;52.460;13.322;2023-11-21T12:41:35;4.00;99.90
7204;DHT22;3643;52.460;13.322;2023-11-21T12:44:04;3.90;99.90
7204;DHT22;3643;52.460;13.322;2023-11-21T12:46:42;3.90;99.90
7204;DHT22;3643;52.460;13.322;2023-11-21T12:49:12;3.80;99.90
7204;DHT22;3643;52.460;13.322;2023-11-21T12:51:45;3.80;99.90
7204;DHT22;3643;52.460;13.322;2023-11-21T12:54:13;3.80;99.90
7204;DHT22;3643;52.460;13.322;2023-11-21T12:56:45;3.70;99.90
7204;DHT22;3643;52.460;13.322;2023-11-21T12:59:15;3.70;99.90
7204;DHT22;3643;52.460;13.322;2023-11-21T13:01:46;3.70;99.90
7204;DHT22;3643;52.460;13.322;2023-11-21T13:04:18;3.90;99.90
7204;DHT22;3643;52.460;13.322;2023-11-21T13:06:46;3.70;99.90
7204;DHT22;3643;52.460;13.322;2023-11-21T13:09:14;3.70;99.90
7204;DHT22;3643;52.460;13.322;2023-11-21T13:11:48;3.80;99.90
7204;DHT22;3643;52.460;13.322;2023-11-21T13:14:16;3.80;99.90
7204;DHT22;3643;52.460;13.322;2023-11-21T13:16:46;3.80;99.90
7204;DHT22;3643;52.460;13.322;2023-11-21T13:19:14;3.90;99.90
7204;DHT22;3643;52.460;13.322;2023-11-21T13:21:42;3.80;99.90
7204;DHT22;3643;52.460;13.322;2023-11-21T13:24:10;3.80;99.90
7204;DHT22;3643;52.460;13.322;2023-11-21T13:26:38;3.80;99.90
7204;DHT22;3643;52.460;13.322;2023-11-21T13:29:07;3.80;99.90
7204;DHT22;3643;52.460;13.322;2023-11-21T13:31:36;3.80;99.90
7204;DHT22;3643;52.460;13.322;2023-11-21T13:34:06;3.70;99.90
7204;DHT22;3643;52.460;13.322;2023-11-21T13:36:35;3.70;99.90
7204;DHT22;3643;52.460;13.322;2023-11-21T13:39:03;3.70;99.90
7204;DHT22;3643;52.460;13.322;2023-11-21T13:41:37;3.60;99.90
7204;DHT22;3643;52.460;13.322;2023-11-21T13:44:06;3.60;99.90
7204;DHT22;3643;52.460;13.322;2023-11-21T13:46:43;3.60;99.90
7204;DHT22;3643;52.460;13.322;2023-11-21T13:49:14;3.60;99.90
7204;DHT22;3643;52.460;13.322;2023-11-21T13:51:43;3.60;99.90
7204;DHT22;3643;52.460;13.322;2023-11-21T13:54:14;3.60;99.90
7204;DHT22;3643;52.460;13.322;2023-11-21T13:56:42;3.60;99.90
7204;DHT22;3643;52.460;13.322;2023-11-21T13:59:12;3.50;99.90
7204;DHT22;3643;52.460;13.322;2023-11-21T14:01:47;3.50;99.90
7204;DHT22;3643;52.460;13.322;2023-11-21T14:04:25;3.50;99.90
7204;DHT22;3643;52.460;13.322;2023-11-21T14:07:13;3.40;99.90
7204;DHT22;3643;52.460;13.322;2023-11-21T14:09:58;3.40;99.90
7204;DHT22;3643;52.460;13.322;2023-11-21T14:12:27;3.30;99.90
7204;DHT22;3643;52.460;13.322;2023-11-21T14:14:55;3.30;99.90
7204;DHT22;3643;52.460;13.322;2023-11-21T14:17:23;3.30;99.90
7204;DHT22;3643;52.460;13.322;2023-11-21T14:19:53;3.30;99.90
7204;DHT22;3643;52.460;13.322;2023-11-21T14:22:23;3.30;99.90
7204;DHT22;3643;52.460;13.322;2023-11-21T14:24:52;3.20;99.90
7204;DHT22;3643;52.460;13.322;2023-11-21T14:27:22;3.20;99.90
7204;DHT22;3643;52.460;13.322;2023-11-21T14:29:51;3.10;99.90
7204;DHT22;3643;52.460;13.322;2023-11-21T14:32:19;3.10;99.90
7204;DHT22;3643;52.460;13.322;2023-11-21T14:34:48;3.00;99.90
7204;DHT22;3643;52.460;13.322;2023-11-21T14:37:18;2.90;99.90
7204;DHT22;3643;52.460;13.322;2023-11-21T14:39:46;2.90;99.90
7204;DHT22;3643;52.460;13.322;2023-11-21T14:42:16;2.80;99.90
7204;DHT22;3643;52.460;13.322;2023-11-21T14:44:51;2.70;99.90
7204;DHT22;3643;52.460;13.322;2023-11-21T14:47:19;2.70;99.90
7204;DHT22;3643;52.460;13.322;2023-11-21T14:49:52;2.70;99.90
7204;DHT22;3643;52.460;13.322;2023-11-21T14:52:22;2.70;99.90
7204;DHT22;3643;52.460;13.322;2023-11-21T14:55:00;2.60;99.90
7204;DHT22;3643;52.460;13.322;2023-11-21T14:57:42;2.70;99.90
7204;DHT22;3643;52.460;13.322;2023-11-21T15:00:16;2.60;99.90
7204;DHT22;3643;52.460;13.322;2023-11-21T15:03:05;2.60;99.90
7204;DHT22;3643;52.460;13.322;2023-11-21T15:05:33;2.50;99.90
7204;DHT22;3643;52.460;13.322;2023-11-21T15:08:04;2.50;99.90
7204;DHT22;3643;52.460;13.322;2023-11-21T15:10:48;2.60;99.90
7204;DHT22;3643;52.460;13.322;2023-11-21T15:13:20;2.60;99.90
7204;DHT22;3643;52.460;13.322;2023-11-21T15:15:48;2.50;99.90
7204;DHT22;3643;52.460;13.322;2023-11-21T15:18:17;2.50;99.90
7204;DHT22;3643;52.460;13.322;2023-11-21T15:20:45;2.50;99.90
7204;DHT22;3643;52.460;13.322;2023-11-21T15:23:14;2.40;99.90
7204;DHT22;3643;52.460;13.322;2023-11-21T15:25:45;2.40;99.90
7204;DHT22;3643;52.460;13.322;2023-11-21T15:28:13;2.40;99.90
7204;DHT22;3643;52.460;13.322;2023-11-21T15:30:41;2.40;99.90
7204;DHT22;3643;52.460;13.322;2023-11-21T15:33:09;2.40;99.90
7204;DHT22;3643;52.460;13.322;2023-11-21T15:35:39;2.40;99.90
7204;DHT22;3643;52.460;13.322;2023-11-21T15:38:09;2.40;99.90
7204;DHT22;3643;52.460;13.322;2023-11-21T15:40:38;2.50;99.90
7204;DHT22;3643;52.460;13.322;2023-11-21T15:43:06;2.50;99.90
7204;DHT22;3643;52.460;13.322;2023-11-21T15:45:34;2.70;99.90
7204;DHT22;3643;52.460;13.322;2023-11-21T15:48:02;2.40;99.90
7204;DHT22;3643;52.460;13.322;2023-11-21T15:50:30;2.40;99.90
7204;DHT22;3643;52.460;13.322;2023-11-21T15:52:59;2.40;99.90
7204;DHT22;3643;52.460;13.322;2023-11-21T15:55:28;2.40;99.90
7204;DHT22;3643;52.460;13.322;2023-11-21T15:57:57;2.40;99.90
7204;DHT22;3643;52.460;13.322;2023-11-21T16:00:27;2.40;99.90
7204;DHT22;3643;52.460;13.322;2023-11-21T16:02:55;2.50;99.90
7204;DHT22;3643;52.460;13.322;2023-11-21T16:05:24;2.50;99.90
7204;DHT22;3643;52.460;13.322;2023-11-21T16:07:52;2.50;99.90
7204;DHT22;3643;52.460;13.322;2023-11-21T16:10:21;2.50;99.90
7204;DHT22;3643;52.460;13.322;2023-11-21T16:12:50;2.40;99.90
7204;DHT22;3643;52.460;13.322;2023-11-21T16:15:19;2.40;99.90
7204;DHT22;3643;52.460;13.322;2023-11-21T16:17:49;2.40;99.90
7204;DHT22;3643;52.460;13.322;2023-11-21T16:20:17;2.50;99.90
7204;DHT22;3643;52.460;13.322;2023-11-21T16:22:45;2.40;99.90